Campiña-No se requiere un especial cuidado respecto a la situación meteorológica.   -   No hay avisos

Informes METAR

 

LEZL - Sevilla, Spain
Distancia de la estación: ENE 8km
Actualización: 12/11/2019 04:00
Poco nuboso
Poco nuboso
 Viento de NO
Viento: NO 7 km/h
Temperatura: 11°C
Rocío: 9°C
Humedad: 88%
Barómetro: 1017 hPa
Nubes: Poco nuboso
Visibilidad: 10 km
Detalles de las nubes: Poco nuboso 1219 m
2019/11/12 03:00 LEZL 120300Z 31004KT 9999 FEW040 11/09 Q1017 NOSIG
LEMO - Morón, Spain
Distancia de la estación: SE 43km
Actualización: 12/11/2019 04:00
Poco nuboso
Poco nuboso
 Viento de variable
Viento: variable 2 km/h
Temperatura: 9°C
Rocío: 8°C
Humedad: 94%
Barómetro: 1017 hPa
Nubes: Poco nuboso
Visibilidad: 10 km
Detalles de las nubes: Poco nuboso 1189 m
2019/11/12 03:00 LEMO 120300Z VRB01KT 9999 FEW039 09/08 Q1017 NOSIG
LEJR - Jeréz, Spain
Distancia de la estación: S 71km
Actualización: 12/11/2019 04:00
Poco nuboso
Poco nuboso
 Viento de ENE
Viento: ENE 2 km/h
Temperatura: 10°C
Rocío: 9°C
Humedad: 94%
Barómetro: 1017 hPa
Nubes: Poco nuboso
Visibilidad: 10 km
Detalles de las nubes: Poco nuboso 1494 m
2019/11/12 03:00 LEJR 120300Z AUTO 06001KT 9999 FEW049 10/09 Q1017
 
LERT - Rota, Spain
Distancia de la estación: SSO 89km
Actualización: 12/11/2019 04:00
Muy nuboso
Muy nuboso
 Viento de NO
Viento: NO 15 km/h
Temperatura: 14°C
Rocío: 11°C
Humedad: 82%
Barómetro: 1017 hPa
Nubes: Muy nuboso
Visibilidad: 10 km
Detalles de las nubes: Muy nuboso 1402 m
2019/11/12 03:00 LERT 120300Z 32008KT 290V360 9999 BKN046 14/11 Q1017 NOSIG
LEMG - Málaga, Spain
Distancia de la estación: ESE 157km
Actualización: 12/11/2019 04:00
Poco nuboso
Poco nuboso
 Viento de ONO
Viento: ONO 24 km/h
Temperatura: 15°C
Rocío: 11°C
Humedad: 77%
Barómetro: 1015 hPa
Nubes: Poco nuboso
Visibilidad: 10 km
Detalles de las nubes: Poco nuboso 1524 m
2019/11/12 03:00 LEMG 120300Z 29013KT 9999 FEW050 15/11 Q1015 NOSIG
LEBA - Córdoba, Spain
Distancia de la estación: ENE 115km
Actualización: 12/11/2019 04:00
Cubierto
Cubierto
 Viento de calm
Viento: Calma
Temperatura: 10°C
Rocío: 9°C
Humedad: 94%
Barómetro: 1016 hPa
Nubes: Cubierto
Visibilidad: 10 km
Detalles de las nubes: Cubierto 701 m
2019/11/12 03:00 LEBA 120300Z AUTO 00000KT 9999 OVC023 10/09 Q1016
 
LEGR - Granada, Spain
Distancia de la estación: E 198km
Actualización: 12/11/2019 04:00
Despejado
Despejado
 Viento de variable
Viento: variable 4 km/h
Temperatura: 6°C
Rocío: 5°C
Humedad: 93%
Barómetro: 1016 hPa
Nubes: Despejado
Visibilidad: 10 km
2019/11/12 03:00 LEGR 120300Z AUTO VRB02KT 9999 NCD 06/05 Q1016
LEAM - Almería, Spain
Distancia de la estación: E 326km
Actualización: 12/11/2019 04:00

 Viento de NO
Viento: NO 9 km/h
Temperatura: 14°C
Rocío: 5°C
Humedad: 55%
Barómetro: 1013 hPa
Visibilidad: 10 km
2019/11/12 03:00 LEAM 120300Z AUTO 31005KT 9999 ////// 14/05 Q1013
LEMD - Madrid/Barajas, Spain
Distancia de la estación: NNE 402km
Actualización: 12/11/2019 04:00
Despejado
Despejado
 Viento de calm
Viento: Calma
Temperatura: 5°C
Rocío: 2°C
Humedad: 81%
Barómetro: 1017 hPa
Resumen: Despejado
Visibilidad: mayor de 10 km
2019/11/12 03:00 LEMD 120300Z 00000KT CAVOK 05/02 Q1017 NOSIG
 
LEVD - Valladolid, Spain
Distancia de la estación: N 492km
Actualización: 12/11/2019 04:00
Despejado
Despejado
 Viento de O
Viento: O 9 km/h
Temperatura: 3°C
Sensación térmica: 0°C
Rocío: 0°C
Humedad: 81%
Barómetro: 1018 hPa
Resumen: Despejado
Visibilidad: mayor de 10 km
2019/11/12 03:00 LEVD 120300Z AUTO 28005KT CAVOK 03/00 Q1018
LEBL - Barcelona, Spain
Distancia de la estación: NE 816km
Actualización: 12/11/2019 04:00
Poco nuboso
Poco nuboso
 Viento de NNO
Viento: NNO 17 km/h
Temperatura: 9°C
Sensación térmica: 7°C
Rocío: 4°C
Humedad: 71%
Barómetro: 1010 hPa
Nubes: Poco nuboso
Visibilidad: 10 km
Detalles de las nubes: Poco nuboso 1219 m
2019/11/12 03:00 LEBL 120300Z 33009KT 9999 FEW040 09/04 Q1010 NOSIG
LEVC - Valencia, Spain
Distancia de la estación: ENE 535km
Actualización: 12/11/2019 04:00
Poco nuboso
Poco nuboso
 Viento de OSO
Viento: OSO 11 km/h
Temperatura: 10°C
Sensación térmica: 8°C
Rocío: 1°C
Humedad: 54%
Barómetro: 1012 hPa
Nubes: Poco nuboso
Visibilidad: 10 km
Detalles de las nubes: Poco nuboso 1524 m
2019/11/12 03:00 LEVC 120300Z 25006KT 9999 FEW050 10/01 Q1012 NOSIG